Weather at Urgench Airport

Public forecast

Using degrees Celsius for public forecast. Weather courtesy of forecast.io.

Current aviation weather report (METAR) for Urgench Airport

Retrieved 2021/01/23 06:30 UTC (28 minutes ago):

UTNU 230630Z 22012KT 9000 OVC047 01/M05 Q1035 R31/410850 NOSIG

Aviation forecast (TAF) for Urgench Airport

Retrieved 2021/01/23 06:09 UTC (49 minutes ago):

TAF UTNU 230500Z 2306/2406 22012G22KT 7000 BKN020 OVC100 TEMPO 2306/2312 27016G26KT